Time;durP1;ratioP1;P1;durP2;ratioP2;P2;SDS_P1;SDS_P2;PMS_P1;PMS_P2;Temp;Humidity;BMP_temperature;BMP_pressure;BME280_temperature;BME280_humidity;BME280_pressure;Samples;Min_cycle;Max_cycle;Signal;HPM_P1;HPM_P2
2021/09/02 00:01:40;;;;;;;12.70;11.50;;;15.70;1.00;;;;;;6147923;23;20515;-79
2021/09/02 00:04:07;;;;;;;13.50;11.57;;;15.70;1.00;;;;;;6145913;23;20419;-78
2021/09/02 00:06:34;;;;;;;11.33;10.17;;;15.70;1.00;;;;;;6145151;23;20467;-80
2021/09/02 00:09:00;;;;;;;12.60;11.30;;;15.70;1.00;;;;;;6149869;23;20423;-80
2021/09/02 00:11:27;;;;;;;12.13;10.53;;;15.70;1.00;;;;;;6137674;23;21029;-79
2021/09/02 00:13:54;;;;;;;11.50;10.40;;;15.70;1.00;;;;;;6142703;23;20861;-79
2021/09/02 00:16:21;;;;;;;13.30;12.00;;;15.80;1.00;;;;;;6143065;23;20417;-79
2021/09/02 00:18:48;;;;;;;12.23;11.03;;;15.80;1.00;;;;;;6143368;23;20434;-79
2021/09/02 00:21:15;;;;;;;14.97;11.37;;;15.80;1.00;;;;;;6145562;23;20415;-78
2021/09/02 00:23:41;;;;;;;12.97;11.60;;;15.90;1.00;;;;;;6147698;23;20405;-79
2021/09/02 00:26:08;;;;;;;12.40;11.20;;;15.90;1.00;;;;;;6161711;23;20420;-78
2021/09/02 00:28:35;;;;;;;12.17;11.03;;;15.80;1.00;;;;;;6171590;23;20384;-79
2021/09/02 00:31:01;;;;;;;11.90;10.70;;;15.90;1.00;;;;;;6157251;23;20447;-80
2021/09/02 00:33:29;;;;;;;13.47;12.20;;;15.90;1.00;;;;;;6145066;23;20397;-79
2021/09/02 00:35:56;;;;;;;12.57;10.67;;;15.90;1.00;;;;;;6149469;23;21162;-81
2021/09/02 00:38:23;;;;;;;12.03;10.47;;;16.00;1.00;;;;;;6152159;23;20478;-81
2021/09/02 00:40:50;;;;;;;12.67;9.83;;;16.10;1.00;;;;;;6152064;23;20436;-81
2021/09/02 00:43:16;;;;;;;13.03;10.00;;;16.10;1.00;;;;;;6156779;23;20393;-81
2021/09/02 00:45:43;;;;;;;11.17;10.20;;;16.10;1.00;;;;;;6146518;23;20413;-80
2021/09/02 00:48:10;;;;;;;11.83;10.80;;;16.10;1.00;;;;;;6145692;23;20787;-80
2021/09/02 00:50:38;;;;;;;11.20;10.10;;;16.10;1.00;;;;;;6144011;23;21257;-81
2021/09/02 00:53:05;;;;;;;12.50;11.20;;;16.10;1.00;;;;;;6146210;23;20932;-80
2021/09/02 00:55:32;;;;;;;12.27;10.50;;;16.10;1.00;;;;;;6143898;23;20402;-79
2021/09/02 00:58:00;;;;;;;11.20;10.10;;;16.10;1.00;;;;;;6143185;23;21372;-81
2021/09/02 01:00:27;;;;;;;11.87;10.77;;;16.10;1.00;;;;;;6142925;23;20416;-81
2021/09/02 01:02:53;;;;;;;11.63;10.07;;;16.10;1.00;;;;;;6144008;23;20382;-80
2021/09/02 01:05:22;;;;;;;11.43;10.33;;;16.20;1.00;;;;;;6144522;23;20417;-81
2021/09/02 01:07:50;;;;;;;11.27;9.30;;;16.20;1.00;;;;;;6147943;23;20401;-81
2021/09/02 01:10:17;;;;;;;10.90;9.90;;;16.20;1.00;;;;;;6149773;23;20481;-80
2021/09/02 01:12:48;;;;;;;10.63;9.53;;;16.20;1.00;;;;;;6159538;23;20438;-80
2021/09/02 01:15:17;;;;;;;10.07;9.07;;;16.20;1.00;;;;;;6161915;23;20426;-80
2021/09/02 01:17:45;;;;;;;11.30;10.20;;;16.20;1.00;;;;;;6165656;23;20703;-80
2021/09/02 01:20:14;;;;;;;10.97;9.90;;;16.20;1.00;;;;;;6167847;23;20387;-79
2021/09/02 01:22:42;;;;;;;10.73;9.57;;;16.20;1.00;;;;;;6167911;23;20998;-80
2021/09/02 01:25:12;;;;;;;11.20;9.67;;;16.20;1.00;;;;;;6164053;23;20486;-78
2021/09/02 01:27:41;;;;;;;11.00;9.97;;;16.20;1.00;;;;;;6165466;23;20417;-79
2021/09/02 01:30:11;;;;;;;12.63;10.90;;;16.20;1.00;;;;;;6171437;23;20378;-79
2021/09/02 01:32:41;;;;;;;11.13;10.13;;;16.20;1.00;;;;;;6172254;23;20380;-80
2021/09/02 01:35:10;;;;;;;10.40;9.40;;;16.20;1.00;;;;;;6169079;23;20475;-79
2021/09/02 01:37:39;;;;;;;10.90;9.37;;;16.20;1.00;;;;;;6171533;23;20369;-79
2021/09/02 01:40:08;;;;;;;11.70;10.60;;;16.10;1.00;;;;;;6168700;23;20591;-79
2021/09/02 01:42:36;;;;;;;11.23;10.03;;;16.10;1.00;;;;;;6169023;23;20512;-80
2021/09/02 01:45:04;;;;;;;10.60;9.60;;;16.10;1.00;;;;;;6166475;23;20445;-79
2021/09/02 01:47:31;;;;;;;9.20;8.40;;;16.10;1.00;;;;;;6159370;23;20384;-79
2021/09/02 01:50:10;;;;;;;10.33;9.40;;;16.10;1.00;;;;;;6151251;23;20488;-79
2021/09/02 01:52:38;;;;;;;10.20;9.20;;;16.10;1.00;;;;;;6153518;23;20437;-82
2021/09/02 01:55:07;;;;;;;9.50;8.60;;;16.10;1.00;;;;;;6150076;23;20421;-81
2021/09/02 01:57:34;;;;;;;10.73;9.67;;;16.10;1.00;;;;;;6157745;23;20369;-79
2021/09/02 02:00:02;;;;;;;10.13;9.20;;;16.20;1.00;;;;;;6181201;23;20380;-79
2021/09/02 02:02:29;;;;;;;9.73;8.80;;;16.20;1.00;;;;;;6180157;23;20389;-79
2021/09/02 02:04:55;;;;;;;11.40;9.53;;;16.20;1.00;;;;;;6181124;23;20428;-80
2021/09/02 02:07:22;;;;;;;10.80;9.63;;;16.20;1.00;;;;;;6181225;23;20376;-78
2021/09/02 02:09:49;;;;;;;10.47;9.37;;;16.20;1.00;;;;;;6180449;23;20415;-78
2021/09/02 02:12:16;;;;;;;9.37;8.37;;;16.10;1.00;;;;;;6180429;23;20350;-77
2021/09/02 02:14:43;;;;;;;10.30;9.27;;;16.10;1.00;;;;;;6180640;23;20424;-79
2021/09/02 02:17:11;;;;;;;12.03;9.00;;;16.10;1.00;;;;;;6180262;23;20355;-79
2021/09/02 02:19:38;;;;;;;10.70;9.60;;;16.00;1.00;;;;;;6179982;23;20376;-78
2021/09/02 02:22:04;;;;;;;10.83;9.63;;;16.00;1.00;;;;;;6180166;23;20357;-79
2021/09/02 02:24:32;;;;;;;10.17;9.13;;;16.00;1.00;;;;;;6180604;23;20435;-79
2021/09/02 02:26:59;;;;;;;11.67;10.23;;;16.00;1.00;;;;;;6180304;23;20436;-77
2021/09/02 02:29:25;;;;;;;10.43;9.43;;;15.90;1.00;;;;;;6179913;23;20404;-79
2021/09/02 02:31:52;;;;;;;11.73;9.60;;;15.90;1.00;;;;;;6179411;23;20384;-79
2021/09/02 02:34:20;;;;;;;11.33;9.20;;;15.80;1.00;;;;;;6176885;23;20377;-80
2021/09/02 02:36:47;;;;;;;11.37;10.20;;;15.80;1.00;;;;;;6177558;23;20363;-80
2021/09/02 02:39:13;;;;;;;10.23;9.23;;;15.80;1.00;;;;;;6179379;23;20429;-79
2021/09/02 02:41:40;;;;;;;12.33;9.47;;;15.70;1.00;;;;;;6181925;23;20373;-80
2021/09/02 02:44:07;;;;;;;10.53;9.57;;;15.70;1.00;;;;;;6179070;23;20377;-80
2021/09/02 02:46:34;;;;;;;11.57;10.40;;;15.70;1.00;;;;;;6175953;23;20947;-79
2021/09/02 02:49:01;;;;;;;10.70;9.70;;;15.70;1.00;;;;;;6173315;23;20480;-79
2021/09/02 02:51:29;;;;;;;11.93;10.23;;;15.60;1.00;;;;;;6165129;23;20443;-79
2021/09/02 02:53:55;;;;;;;13.03;10.87;;;15.60;1.00;;;;;;6164439;23;20407;-79
2021/09/02 02:56:22;;;;;;;11.03;9.93;;;15.50;1.00;;;;;;6152537;23;20385;-79
2021/09/02 02:58:49;;;;;;;11.90;10.67;;;15.60;1.00;;;;;;6150893;23;20393;-79
2021/09/02 03:01:16;;;;;;;11.47;10.47;;;15.50;1.00;;;;;;6149770;23;20445;-79
2021/09/02 03:03:43;;;;;;;11.57;10.47;;;15.50;1.00;;;;;;6143789;23;20435;-80
2021/09/02 03:06:10;;;;;;;11.47;10.27;;;15.50;1.00;;;;;;6141942;23;20410;-79
2021/09/02 03:08:38;;;;;;;10.93;9.83;;;15.50;1.00;;;;;;6145486;23;20418;-80
2021/09/02 03:11:05;;;;;;;14.20;11.43;;;15.50;1.00;;;;;;6147015;23;20410;-80
2021/09/02 03:13:32;;;;;;;11.63;10.53;;;15.50;1.00;;;;;;6160523;23;20486;-78
2021/09/02 03:15:58;;;;;;;11.97;10.77;;;15.40;1.00;;;;;;6175538;23;20380;-79
2021/09/02 03:18:25;;;;;;;11.60;10.50;;;15.40;1.00;;;;;;6153631;23;21393;-81
2021/09/02 03:20:52;;;;;;;14.20;11.17;;;15.40;1.00;;;;;;6144001;23;20532;-79
2021/09/02 03:23:19;;;;;;;12.70;11.27;;;15.40;1.00;;;;;;6143714;23;20406;-80
2021/09/02 03:25:47;;;;;;;11.70;10.50;;;15.40;1.00;;;;;;6147173;23;20451;-81
2021/09/02 03:28:13;;;;;;;12.53;11.17;;;15.40;1.00;;;;;;6146887;23;21222;-81
2021/09/02 03:30:40;;;;;;;14.30;12.80;;;15.50;1.00;;;;;;6146256;23;20416;-81
2021/09/02 03:33:07;;;;;;;12.70;11.50;;;15.50;1.00;;;;;;6146504;23;20409;-80
2021/09/02 03:35:33;;;;;;;11.47;10.30;;;15.50;1.00;;;;;;6141457;23;20389;-80
2021/09/02 03:38:00;;;;;;;11.90;10.70;;;15.50;1.00;;;;;;6141814;23;20462;-81
2021/09/02 03:40:29;;;;;;;15.97;11.10;;;15.60;1.00;;;;;;6145175;23;20432;-80
2021/09/02 03:42:57;;;;;;;12.37;10.93;;;15.50;1.00;;;;;;6142400;23;20413;-81
2021/09/02 03:45:24;;;;;;;13.10;11.57;;;15.50;1.00;;;;;;6144733;23;20397;-81
2021/09/02 03:47:51;;;;;;;15.10;11.20;;;15.50;1.00;;;;;;6147246;23;20495;-81
2021/09/02 03:50:19;;;;;;;11.40;10.30;;;15.50;1.00;;;;;;6145370;23;21387;-81
2021/09/02 03:52:47;;;;;;;13.27;11.63;;;15.50;1.00;;;;;;6145953;23;21229;-80
2021/09/02 03:55:14;;;;;;;13.03;11.47;;;15.50;1.00;;;;;;6143505;23;20512;-80
2021/09/02 03:57:41;;;;;;;13.10;11.90;;;15.50;1.00;;;;;;6147460;23;20441;-81
2021/09/02 04:00:12;;;;;;;14.33;12.27;;;15.60;1.00;;;;;;6145061;23;20779;-80
2021/09/02 04:02:39;;;;;;;13.20;11.80;;;15.60;1.00;;;;;;6149356;23;20412;-80
2021/09/02 04:05:08;;;;;;;12.90;11.60;;;15.60;1.00;;;;;;6145861;23;20416;-81
2021/09/02 04:07:35;;;;;;;12.47;11.27;;;15.60;1.00;;;;;;6146592;23;20420;-81
2021/09/02 04:10:02;;;;;;;13.20;11.63;;;15.50;1.00;;;;;;6147446;23;20467;-81
2021/09/02 04:12:28;;;;;;;15.53;13.60;;;15.50;1.00;;;;;;6152424;23;20714;-82
2021/09/02 04:14:55;;;;;;;14.40;12.90;;;15.50;1.00;;;;;;6149845;23;20581;-81
2021/09/02 04:17:23;;;;;;;16.50;14.77;;;15.50;1.00;;;;;;6163185;23;20419;-80
2021/09/02 04:19:50;;;;;;;14.53;13.03;;;15.50;1.00;;;;;;6173134;23;20510;-80
2021/09/02 04:22:17;;;;;;;14.80;13.13;;;15.50;1.00;;;;;;6154500;23;21583;-83
2021/09/02 04:24:44;;;;;;;13.20;11.90;;;15.40;1.00;;;;;;6149762;23;20445;-82
2021/09/02 04:27:14;;;;;;;13.93;12.23;;;15.40;1.00;;;;;;6151406;23;20429;-81
2021/09/02 04:29:42;;;;;;;15.13;13.03;;;15.50;1.00;;;;;;6155166;23;20424;-81
2021/09/02 04:32:09;;;;;;;14.10;12.17;;;15.50;1.00;;;;;;6152692;23;20432;-80
2021/09/02 04:34:38;;;;;;;17.17;14.40;;;15.50;1.00;;;;;;6155532;23;20385;-82
2021/09/02 04:37:05;;;;;;;16.23;13.67;;;15.50;1.00;;;;;;6151379;23;21441;-82
2021/09/02 04:39:32;;;;;;;14.63;12.80;;;15.50;1.00;;;;;;6150360;23;20407;-84
2021/09/02 04:41:59;;;;;;;18.83;15.70;;;15.40;1.00;;;;;;6149060;23;20492;-83
2021/09/02 04:44:25;;;;;;;13.70;12.17;;;15.40;1.00;;;;;;6161092;23;20462;-82
2021/09/02 04:46:52;;;;;;;16.13;13.50;;;15.40;1.00;;;;;;6163318;23;20763;-82
2021/09/02 04:49:20;;;;;;;16.87;12.97;;;15.40;1.00;;;;;;6157898;23;20720;-79
2021/09/02 04:51:48;;;;;;;15.13;13.63;;;15.40;1.00;;;;;;6157358;23;20466;-77
2021/09/02 04:54:15;;;;;;;14.70;13.40;;;15.40;1.00;;;;;;6146240;23;20484;-79
2021/09/02 04:56:42;;;;;;;15.90;12.87;;;15.40;1.00;;;;;;6142470;23;20423;-78
2021/09/02 04:59:08;;;;;;;14.57;12.90;;;15.40;1.00;;;;;;6145186;23;20423;-77
2021/09/02 05:01:35;;;;;;;15.20;13.60;;;15.40;1.00;;;;;;6144357;23;20938;-81
2021/09/02 05:04:02;;;;;;;16.23;13.70;;;15.40;1.00;;;;;;6146350;23;20943;-77
2021/09/02 05:06:29;;;;;;;16.83;14.50;;;15.40;1.00;;;;;;6143735;23;20424;-76
2021/09/02 05:08:57;;;;;;;16.00;14.30;;;15.40;1.00;;;;;;6147740;23;20377;-79
2021/09/02 05:11:27;;;;;;;16.20;14.50;;;15.40;1.00;;;;;;6145987;23;20397;-78
2021/09/02 05:13:54;;;;;;;16.97;14.30;;;15.40;1.00;;;;;;6150406;23;20409;-81
2021/09/02 05:16:20;;;;;;;16.90;14.33;;;15.40;1.00;;;;;;6148129;23;20410;-78
2021/09/02 05:18:47;;;;;;;15.90;13.80;;;15.50;1.00;;;;;;6145607;23;20460;-79
2021/09/02 05:21:14;;;;;;;17.43;15.47;;;15.50;1.00;;;;;;6150338;23;20400;-76
2021/09/02 05:23:41;;;;;;;15.60;13.57;;;15.50;1.00;;;;;;6156349;23;20362;-76
2021/09/02 05:26:09;;;;;;;15.63;14.13;;;15.50;1.00;;;;;;6164096;23;20488;-78
2021/09/02 05:28:35;;;;;;;17.27;15.33;;;15.50;1.00;;;;;;6167677;23;20437;-76
2021/09/02 05:31:02;;;;;;;16.53;14.70;;;15.50;1.00;;;;;;6168526;23;20419;-83
2021/09/02 05:33:29;;;;;;;15.50;13.97;;;15.60;1.00;;;;;;6172067;23;20425;-78
2021/09/02 05:35:56;;;;;;;16.90;13.90;;;15.60;1.00;;;;;;6171404;23;20409;-80
2021/09/02 05:38:23;;;;;;;16.80;15.07;;;15.60;1.00;;;;;;6173080;23;20457;-80
2021/09/02 05:40:50;;;;;;;15.70;14.10;;;15.70;1.00;;;;;;6172215;23;20448;-83
2021/09/02 05:43:19;;;;;;;15.97;14.30;;;15.70;1.00;;;;;;6164561;23;20393;-84
2021/09/02 05:45:46;;;;;;;15.13;13.50;;;15.80;1.00;;;;;;6170551;23;20383;-85
2021/09/02 05:48:13;;;;;;;18.00;14.70;;;15.80;1.00;;;;;;6161657;23;20994;-85
2021/09/02 05:50:40;;;;;;;18.93;14.77;;;15.80;1.00;;;;;;6166698;23;20503;-86
2021/09/02 05:53:09;;;;;;;14.80;13.30;;;15.80;1.00;;;;;;6163557;23;20466;-85
2021/09/02 05:55:36;;;;;;;15.60;13.90;;;15.90;1.00;;;;;;6164066;23;20380;-84
2021/09/02 05:58:03;;;;;;;18.33;14.30;;;15.90;1.00;;;;;;6163729;23;20423;-83
2021/09/02 06:00:32;;;;;;;16.77;15.07;;;15.90;1.00;;;;;;6153451;23;20416;-82
2021/09/02 06:03:01;;;;;;;17.10;13.60;;;16.00;1.00;;;;;;6155935;23;20430;-83
2021/09/02 06:05:28;;;;;;;18.40;13.97;;;16.10;1.00;;;;;;6168938;23;20357;-89
2021/09/02 06:07:57;;;;;;;16.97;14.73;;;16.20;1.00;;;;;;6178660;23;20378;-89
2021/09/02 06:10:28;;;;;;;16.53;14.30;;;16.20;1.00;;;;;;6163181;23;20429;-88
2021/09/02 06:12:59;;;;;;;15.80;13.27;;;16.30;1.00;;;;;;6165236;23;20842;-86
2021/09/02 06:15:25;;;;;;;18.00;13.50;;;16.40;1.00;;;;;;6153089;23;20429;-86
2021/09/02 06:17:54;;;;;;;22.90;14.07;;;16.40;1.00;;;;;;6155331;23;20450;-88
2021/09/02 06:20:25;;;;;;;15.30;13.60;;;16.40;1.00;;;;;;6157528;23;20410;-87
2021/09/02 06:22:57;;;;;;;16.77;13.73;;;16.50;1.00;;;;;;6156485;23;20399;-87
2021/09/02 06:25:36;;;;;;;18.73;15.53;;;16.50;1.00;;;;;;6170971;23;20367;-87
2021/09/02 06:28:03;;;;;;;17.13;15.33;;;16.60;1.00;;;;;;6159402;23;20390;-85
2021/09/02 06:30:31;;;;;;;14.97;13.47;;;16.70;1.00;;;;;;6158826;23;20426;-85
2021/09/02 06:32:59;;;;;;;16.20;14.23;;;16.70;1.00;;;;;;6158296;23;21083;-85
2021/09/02 06:35:26;;;;;;;18.80;13.83;;;16.80;1.00;;;;;;6161341;23;21300;-85
2021/09/02 06:37:53;;;;;;;15.30;13.70;;;16.80;1.00;;;;;;6161546;23;20410;-85
2021/09/02 06:40:23;;;;;;;15.10;13.50;;;16.70;1.00;;;;;;6157983;23;20453;-89
2021/09/02 06:42:51;;;;;;;14.23;12.80;;;16.80;1.00;;;;;;6166526;23;20393;-85
2021/09/02 06:45:19;;;;;;;19.17;15.07;;;16.90;1.00;;;;;;6159206;23;20476;-90
2021/09/02 06:47:46;;;;;;;14.87;12.50;;;17.00;1.00;;;;;;6179137;23;20379;-88
2021/09/02 06:50:15;;;;;;;15.20;13.20;;;17.10;1.00;;;;;;6171874;23;20425;-83
2021/09/02 06:53:03;;;;;;;16.07;14.13;;;17.10;1.00;;;;;;6163403;23;20431;-87
2021/09/02 06:55:31;;;;;;;14.97;13.10;;;17.30;1.00;;;;;;6159957;23;20444;-86
2021/09/02 06:58:01;;;;;;;14.60;12.83;;;17.30;1.00;;;;;;6141229;23;20427;-87
2021/09/02 07:00:32;;;;;;;15.40;12.77;;;17.40;1.00;;;;;;6133594;23;20424;-88
2021/09/02 07:03:08;;;;;;;14.57;13.00;;;17.40;1.00;;;;;;6146137;23;20387;-88
2021/09/02 07:05:52;;;;;;;16.70;14.60;;;17.40;1.00;;;;;;6132952;23;20418;-88
2021/09/02 07:08:19;;;;;;;17.30;13.43;;;17.50;1.00;;;;;;6133056;23;20435;-91
2021/09/02 07:10:48;;;;;;;15.17;12.67;;;17.60;1.00;;;;;;6147676;23;20474;-92
2021/09/02 07:13:18;;;;;;;15.63;13.30;;;17.80;1.00;;;;;;6141343;23;20909;-91
2021/09/02 07:15:56;;;;;;;18.13;13.33;;;18.00;1.00;;;;;;6137153;23;20478;-87
2021/09/02 07:21:06;;;;;;;14.70;12.17;;;18.10;1.00;;;;;;6137087;23;20399;-88
2021/09/02 07:23:34;;;;;;;14.27;11.87;;;18.20;1.00;;;;;;6139569;23;20529;-87
2021/09/02 07:26:01;;;;;;;14.00;11.20;;;18.20;1.00;;;;;;6134939;23;20413;-89
2021/09/02 07:28:29;;;;;;;14.50;11.93;;;18.30;1.00;;;;;;6134030;23;21240;-85
2021/09/02 07:30:59;;;;;;;16.50;14.90;;;18.40;1.00;;;;;;6133265;23;20503;-86
2021/09/02 07:33:26;;;;;;;13.67;11.57;;;18.50;1.00;;;;;;6135744;23;20402;-86
2021/09/02 07:35:53;;;;;;;15.50;11.43;;;18.60;1.00;;;;;;6135714;23;20622;-88
2021/09/02 07:38:22;;;;;;;14.63;11.33;;;18.70;1.00;;;;;;6135164;23;20795;-87
2021/09/02 07:40:49;;;;;;;13.77;12.27;;;18.90;1.00;;;;;;6135978;23;20414;-85
2021/09/02 07:43:16;;;;;;;15.60;14.00;;;19.00;1.00;;;;;;6131034;23;20483;-84
2021/09/02 07:45:43;;;;;;;15.20;10.77;;;19.20;1.00;;;;;;6130266;23;20408;-82
2021/09/02 07:48:10;;;;;;;10.60;9.50;;;19.40;1.00;;;;;;6131983;23;20380;-83
2021/09/02 07:50:37;;;;;;;12.80;11.37;;;19.50;1.00;;;;;;6145611;23;20396;-82
2021/09/02 07:53:04;;;;;;;13.47;10.93;;;19.60;1.00;;;;;;6146851;23;20390;-85
2021/09/02 07:55:32;;;;;;;11.73;10.30;;;19.80;1.00;;;;;;6143188;23;21526;-85
2021/09/02 07:58:00;;;;;;;12.67;11.37;;;19.90;1.00;;;;;;6131376;23;20440;-85
2021/09/02 08:00:27;;;;;;;11.73;10.17;;;20.00;1.00;;;;;;6127058;23;20455;-85
2021/09/02 08:02:54;;;;;;;12.20;10.03;;;20.00;1.00;;;;;;6127762;23;20507;-83
2021/09/02 08:05:21;;;;;;;11.10;10.00;;;20.00;1.00;;;;;;6126887;23;20376;-84
2021/09/02 08:07:52;;;;;;;12.13;9.97;;;20.00;1.00;;;;;;6129629;23;20446;-86
2021/09/02 08:10:21;;;;;;;11.77;10.47;;;20.00;1.00;;;;;;6133153;23;20391;-85
2021/09/02 08:12:55;;;;;;;14.50;10.97;;;20.10;1.00;;;;;;6132858;23;20392;-84
2021/09/02 08:15:24;;;;;;;13.70;11.70;;;20.00;1.00;;;;;;6133038;23;20416;-84
2021/09/02 08:17:51;;;;;;;13.00;10.97;;;19.90;1.00;;;;;;6131877;23;20407;-86
2021/09/02 08:20:22;;;;;;;12.87;11.20;;;19.90;1.00;;;;;;6130307;23;20384;-85
2021/09/02 08:22:49;;;;;;;13.40;11.47;;;20.00;1.00;;;;;;6130296;23;20560;-85
2021/09/02 08:25:16;;;;;;;12.80;11.40;;;20.00;1.00;;;;;;6133445;23;20380;-85
2021/09/02 08:27:45;;;;;;;12.47;10.80;;;20.20;1.00;;;;;;6128219;23;20396;-84
2021/09/02 08:30:16;;;;;;;12.33;11.07;;;20.30;1.00;;;;;;6127035;23;20540;-85
2021/09/02 08:32:47;;;;;;;13.27;12.07;;;20.30;1.00;;;;;;6127445;23;20591;-84
2021/09/02 08:35:14;;;;;;;12.73;11.33;;;20.40;1.00;;;;;;6129772;23;20999;-84
2021/09/02 08:37:40;;;;;;;12.03;10.83;;;20.40;1.00;;;;;;6129217;23;20471;-79
2021/09/02 08:40:11;;;;;;;13.10;11.90;;;20.50;1.00;;;;;;6127910;23;20631;-82
2021/09/02 08:42:42;;;;;;;14.30;12.90;;;20.50;1.00;;;;;;6136057;23;21185;-85
2021/09/02 08:45:09;;;;;;;15.50;14.10;;;20.50;1.00;;;;;;6139843;23;20380;-84
2021/09/02 08:47:48;;;;;;;15.93;13.63;;;20.40;1.00;;;;;;6138924;23;20418;-89
2021/09/02 08:50:19;;;;;;;15.50;14.00;;;20.40;1.00;;;;;;6134464;23;20471;-89
2021/09/02 08:52:48;;;;;;;16.40;12.77;;;20.50;1.00;;;;;;6134178;23;20373;-90
2021/09/02 08:55:18;;;;;;;16.00;14.50;;;20.60;1.00;;;;;;6132496;23;20435;-89
2021/09/02 08:57:50;;;;;;;14.70;13.23;;;20.70;1.00;;;;;;6137651;23;20394;-88
2021/09/02 09:00:19;;;;;;;13.77;12.30;;;20.60;1.00;;;;;;6134557;23;20408;-87
2021/09/02 09:02:51;;;;;;;15.73;14.00;;;20.50;1.00;;;;;;6132969;23;20432;-86
2021/09/02 09:05:19;;;;;;;15.77;14.37;;;20.50;1.00;;;;;;6133221;23;20361;-87
2021/09/02 09:07:48;;;;;;;14.53;12.93;;;20.50;1.00;;;;;;6134603;23;20773;-89
2021/09/02 09:10:18;;;;;;;12.80;11.60;;;20.50;1.00;;;;;;6134157;23;20444;-91
2021/09/02 09:21:35;;;;;;;12.83;11.63;;;20.80;1.00;;;;;;6140793;23;20409;-89
2021/09/02 09:24:06;;;;;;;12.13;10.90;;;21.10;1.00;;;;;;6132111;23;20587;-89
2021/09/02 09:26:34;;;;;;;11.57;10.40;;;21.60;1.00;;;;;;6129672;23;21587;-86
2021/09/02 09:29:03;;;;;;;11.43;10.23;;;22.00;1.00;;;;;;6129584;23;20405;-84
2021/09/02 09:31:32;;;;;;;10.33;9.10;;;22.00;1.00;;;;;;6133275;23;20489;-85
2021/09/02 09:34:01;;;;;;;10.17;9.20;;;22.00;1.00;;;;;;6137337;23;20361;-86
2021/09/02 09:36:31;;;;;;;9.20;8.40;;;22.30;1.00;;;;;;6150350;23;20601;-83
2021/09/02 09:39:02;;;;;;;8.60;7.90;;;23.40;1.00;;;;;;6147339;23;20374;-90
2021/09/02 09:41:35;;;;;;;8.83;8.13;;;24.70;1.00;;;;;;6131419;23;20859;-86
2021/09/02 09:44:20;;;;;;;8.27;7.47;;;25.60;1.00;;;;;;6130196;23;21109;-88
2021/09/02 09:47:07;;;;;;;8.73;8.00;;;26.50;1.00;;;;;;6134096;23;20386;-87
2021/09/02 09:49:43;;;;;;;9.03;7.17;;;27.30;1.00;;;;;;6129562;23;20449;-89
2021/09/02 09:52:30;;;;;;;7.47;6.77;;;28.00;1.00;;;;;;6127114;23;20380;-88
2021/09/02 09:55:04;;;;;;;8.30;7.60;;;28.60;1.00;;;;;;6126858;23;20974;-87
2021/09/02 09:57:33;;;;;;;8.50;7.57;;;29.00;1.00;;;;;;6127372;23;20447;-87
2021/09/02 10:00:02;;;;;;;8.40;7.60;;;29.50;1.00;;;;;;6127044;23;20450;-88
2021/09/02 10:02:30;;;;;;;8.20;7.47;;;29.70;1.00;;;;;;6130092;23;20455;-87
2021/09/02 10:04:58;;;;;;;7.40;6.70;;;29.80;1.00;;;;;;6128807;23;20402;-88
2021/09/02 10:07:29;;;;;;;7.30;6.60;;;30.20;1.00;;;;;;6125780;23;20484;-88
2021/09/02 10:09:58;;;;;;;9.27;7.70;;;30.30;1.00;;;;;;6127065;23;20458;-88
2021/09/02 10:12:26;;;;;;;6.67;6.13;;;30.70;1.00;;;;;;6126988;23;20853;-89
2021/09/02 10:14:55;;;;;;;9.03;8.00;;;31.00;1.00;;;;;;6126514;23;20394;-89
2021/09/02 10:17:23;;;;;;;8.47;7.77;;;31.00;1.00;;;;;;6124717;23;20395;-89
2021/09/02 10:19:51;;;;;;;8.73;7.20;;;31.10;1.00;;;;;;6124391;23;20414;-88
2021/09/02 10:22:18;;;;;;;7.27;6.57;;;31.10;1.00;;;;;;6127033;23;20449;-88
2021/09/02 10:24:49;;;;;;;7.47;6.77;;;31.10;1.00;;;;;;6126819;23;20425;-90
2021/09/02 10:27:37;;;;;;;7.70;7.10;;;31.40;1.00;;;;;;6127007;23;20709;-90
2021/09/02 10:30:25;;;;;;;8.37;7.57;;;31.70;1.00;;;;;;6127506;23;20459;-85
2021/09/02 10:32:53;;;;;;;7.83;7.13;;;31.90;1.00;;;;;;6132574;23;20447;-85
2021/09/02 10:35:32;;;;;;;8.03;7.33;;;31.90;1.00;;;;;;6135837;23;20388;-85
2021/09/02 10:38:13;;;;;;;7.40;6.80;;;32.40;1.00;;;;;;6130816;23;20461;-85
2021/09/02 10:40:47;;;;;;;9.27;8.47;;;32.70;1.00;;;;;;6135147;23;20484;-84
2021/09/02 10:43:15;;;;;;;8.37;7.63;;;32.70;1.00;;;;;;6152712;23;20375;-85
2021/09/02 10:45:42;;;;;;;8.27;7.47;;;32.60;1.00;;;;;;6150394;23;20360;-85
2021/09/02 10:48:16;;;;;;;8.50;7.70;;;32.50;1.00;;;;;;6142665;23;20412;-84
2021/09/02 10:50:45;;;;;;;7.90;7.20;;;32.70;1.00;;;;;;6144685;23;20435;-84
2021/09/02 10:53:13;;;;;;;8.10;7.30;;;32.70;1.00;;;;;;6139418;23;20423;-84
2021/09/02 10:55:41;;;;;;;8.53;7.83;;;32.60;1.00;;;;;;6137548;23;20443;-85
2021/09/02 10:58:12;;;;;;;7.63;7.00;;;32.80;1.00;;;;;;6136535;23;20415;-83
2021/09/02 11:00:40;;;;;;;8.70;7.43;;;33.30;1.00;;;;;;6134103;23;20468;-83
2021/09/02 11:03:18;;;;;;;8.20;7.50;;;33.60;1.00;;;;;;6138546;23;20375;-85
2021/09/02 11:05:49;;;;;;;8.17;7.40;;;33.60;1.00;;;;;;6137155;23;20376;-84
2021/09/02 11:08:31;;;;;;;8.03;7.33;;;33.80;1.00;;;;;;6138631;23;20410;-83
2021/09/02 11:11:09;;;;;;;8.27;7.47;;;34.20;1.00;;;;;;6141258;23;20973;-83
2021/09/02 11:13:37;;;;;;;8.70;7.90;;;34.50;1.00;;;;;;6140725;23;20372;-84
2021/09/02 11:16:08;;;;;;;9.67;8.70;;;34.50;1.00;;;;;;6139649;23;20896;-85
2021/09/02 11:18:42;;;;;;;9.70;8.80;;;34.50;1.00;;;;;;6140011;23;20390;-84
2021/09/02 11:21:12;;;;;;;8.10;7.30;;;34.20;1.00;;;;;;6137301;23;20419;-81
2021/09/02 11:23:40;;;;;;;8.10;7.40;;;34.00;1.00;;;;;;6138701;23;20434;-84
2021/09/02 11:26:07;;;;;;;10.50;9.30;;;34.10;1.00;;;;;;6138315;23;20458;-83
2021/09/02 11:28:49;;;;;;;8.47;7.67;;;33.90;1.00;;;;;;6139385;23;20411;-83
2021/09/02 11:31:16;;;;;;;9.23;8.53;;;33.70;1.00;;;;;;6141044;23;20399;-81
2021/09/02 11:33:47;;;;;;;8.77;7.97;;;33.90;1.00;;;;;;6147204;23;20395;-82
2021/09/02 11:36:15;;;;;;;8.97;7.90;;;34.40;1.00;;;;;;6147795;23;20344;-84
2021/09/02 11:38:42;;;;;;;8.87;8.07;;;34.20;1.00;;;;;;6149456;23;20413;-84
2021/09/02 11:41:10;;;;;;;10.33;8.77;;;34.50;1.00;;;;;;6148167;23;20372;-84
2021/09/02 11:43:39;;;;;;;10.63;9.10;;;34.70;1.00;;;;;;6142552;23;20851;-84
2021/09/02 11:46:07;;;;;;;8.90;8.10;;;35.20;1.00;;;;;;6141791;23;20470;-83
2021/09/02 11:48:45;;;;;;;11.40;7.80;;;35.80;1.00;;;;;;6140366;23;21030;-83
2021/09/02 11:51:12;;;;;;;8.37;7.63;;;36.00;1.00;;;;;;6142763;23;20383;-84
2021/09/02 11:53:39;;;;;;;8.63;7.93;;;35.90;1.00;;;;;;6152745;23;20400;-84
2021/09/02 11:56:16;;;;;;;8.13;7.30;;;35.90;1.00;;;;;;6152640;23;20856;-80
2021/09/02 11:58:43;;;;;;;9.00;8.13;;;36.00;1.00;;;;;;6133526;23;21356;-85
2021/09/02 12:01:11;;;;;;;9.43;8.53;;;36.00;1.00;;;;;;6135803;23;20379;-83
2021/09/02 12:03:38;;;;;;;8.50;7.67;;;35.70;1.00;;;;;;6141517;23;20406;-81
2021/09/02 12:06:05;;;;;;;8.90;7.90;;;36.00;1.00;;;;;;6141189;23;21089;-83
2021/09/02 12:08:33;;;;;;;8.17;7.40;;;36.30;1.00;;;;;;6139516;23;20372;-85
2021/09/02 12:11:00;;;;;;;10.97;8.27;;;36.70;1.00;;;;;;6140397;23;20451;-83
2021/09/02 12:13:33;;;;;;;8.20;7.40;;;36.50;1.00;;;;;;6145104;23;20395;-83
2021/09/02 12:16:05;;;;;;;8.97;8.17;;;36.50;1.00;;;;;;6141795;23;20895;-83
2021/09/02 12:18:34;;;;;;;8.80;8.00;;;36.50;1.00;;;;;;6145843;23;20387;-84
2021/09/02 12:21:12;;;;;;;9.97;8.97;;;36.80;1.00;;;;;;6145770;23;20414;-83
2021/09/02 12:23:43;;;;;;;8.63;7.83;;;36.90;1.00;;;;;;6145832;23;20364;-85
2021/09/02 12:26:10;;;;;;;7.87;7.17;;;37.40;1.00;;;;;;6148880;23;20356;-85
2021/09/02 12:28:39;;;;;;;7.83;7.13;;;37.50;1.00;;;;;;6149970;23;20411;-84
2021/09/02 12:31:17;;;;;;;8.13;7.33;;;37.70;1.00;;;;;;6151761;23;20378;-85
2021/09/02 12:34:00;;;;;;;7.80;7.00;;;37.30;1.00;;;;;;6156551;23;20371;-84
2021/09/02 12:36:28;;;;;;;8.00;7.30;;;37.50;1.00;;;;;;6179974;23;20379;-82
2021/09/02 12:38:55;;;;;;;8.17;7.43;;;37.90;1.00;;;;;;6157954;23;20518;-82
2021/09/02 12:41:25;;;;;;;7.50;6.80;;;37.80;1.00;;;;;;6155457;23;20512;-83
2021/09/02 12:44:02;;;;;;;8.33;7.63;;;37.00;1.00;;;;;;6154536;23;20404;-82
2021/09/02 12:46:29;;;;;;;8.40;7.43;;;37.10;1.00;;;;;;6155357;23;20358;-82
2021/09/02 12:49:09;;;;;;;8.67;7.87;;;37.00;1.00;;;;;;6154445;23;20375;-83
2021/09/02 12:51:37;;;;;;;7.87;7.10;;;36.80;1.00;;;;;;6152277;23;20538;-83
2021/09/02 12:54:03;;;;;;;8.50;7.70;;;36.60;1.00;;;;;;6155345;23;20363;-82
2021/09/02 12:56:35;;;;;;;12.23;7.40;;;36.70;1.00;;;;;;6154460;23;20356;-82
2021/09/02 12:59:03;;;;;;;7.40;6.70;;;37.30;1.00;;;;;;6154971;23;20376;-83
2021/09/02 13:01:30;;;;;;;8.97;7.70;;;37.70;1.00;;;;;;6153473;23;20367;-84
2021/09/02 13:03:59;;;;;;;8.60;7.90;;;37.70;1.00;;;;;;6150960;23;20410;-83